createdAt,value
2019-05-06T00:00:25.527Z,8.60
2019-05-06T00:02:54.689Z,8.50
2019-05-06T00:05:25.505Z,8.40
2019-05-06T00:07:54.734Z,8.30
2019-05-06T00:10:26.515Z,8.30
2019-05-06T00:12:55.777Z,8.30
2019-05-06T00:15:24.658Z,8.30
2019-05-06T00:17:54.020Z,8.30
2019-05-06T00:20:24.267Z,8.30
2019-05-06T00:22:54.991Z,8.30
2019-05-06T00:25:44.197Z,8.30
2019-05-06T00:28:29.792Z,8.40
2019-05-06T00:31:12.181Z,8.30
2019-05-06T00:33:30.633Z,8.10
2019-05-06T00:36:00.583Z,8.10
2019-05-06T00:38:29.440Z,8.00
2019-05-06T00:40:59.938Z,8.10
2019-05-06T00:43:28.709Z,8.00
2019-05-06T00:45:57.526Z,8.10
2019-05-06T00:48:26.457Z,8.00
2019-05-06T00:50:55.556Z,8.20
2019-05-06T00:53:26.098Z,8.20
2019-05-06T00:55:55.184Z,8.10
2019-05-06T00:58:24.078Z,8.20
2019-05-06T01:00:53.780Z,8.00
2019-05-06T01:03:23.933Z,8.00
2019-05-06T01:05:54.266Z,7.90
2019-05-06T01:08:23.957Z,7.90
2019-05-06T01:10:54.536Z,7.90
2019-05-06T01:13:31.211Z,7.80
2019-05-06T01:15:59.979Z,7.60
2019-05-06T01:18:28.828Z,7.50
2019-05-06T01:21:14.505Z,7.50
2019-05-06T01:23:44.551Z,7.50
2019-05-06T01:26:15.329Z,7.50
2019-05-06T01:28:45.561Z,7.50
2019-05-06T01:31:14.531Z,7.50
2019-05-06T01:33:45.242Z,7.60
2019-05-06T01:36:14.248Z,7.60
2019-05-06T01:38:54.567Z,7.50
2019-05-06T01:41:34.204Z,7.50
2019-05-06T01:44:04.227Z,7.50
2019-05-06T01:46:34.009Z,7.60
2019-05-06T01:49:04.303Z,7.60
2019-05-06T01:51:34.753Z,7.50
2019-05-06T01:54:04.114Z,7.60
2019-05-06T01:56:33.686Z,7.70
2019-05-06T01:59:04.544Z,7.70
2019-05-06T02:01:34.158Z,7.80
2019-05-06T02:04:04.428Z,7.80
2019-05-06T02:06:34.363Z,7.80
2019-05-06T02:09:05.047Z,7.90
2019-05-06T02:11:33.941Z,8.00
2019-05-06T02:14:04.815Z,8.00
2019-05-06T02:16:34.363Z,8.10
2019-05-06T02:19:04.085Z,8.10
2019-05-06T02:21:34.855Z,8.10
2019-05-06T02:24:14.478Z,8.20
2019-05-06T02:26:43.760Z,8.30
2019-05-06T02:29:15.200Z,8.30
2019-05-06T02:31:54.624Z,8.30
2019-05-06T02:34:36.750Z,8.20
2019-05-06T02:37:10.443Z,8.20
2019-05-06T02:39:39.226Z,8.30
2019-05-06T02:42:08.417Z,8.20
2019-05-06T02:44:37.284Z,8.20
2019-05-06T02:47:07.692Z,8.40
2019-05-06T02:49:38.149Z,8.40
2019-05-06T02:52:06.966Z,8.40
2019-05-06T02:54:35.790Z,8.40
2019-05-06T02:57:04.918Z,8.40
2019-05-06T02:59:33.715Z,8.40
2019-05-06T03:02:03.296Z,8.40
2019-05-06T03:04:33.364Z,8.40
2019-05-06T03:07:03.710Z,8.40
2019-05-06T03:09:34.002Z,8.40
2019-05-06T03:12:03.747Z,8.50
2019-05-06T03:14:34.609Z,8.50
2019-05-06T03:17:03.900Z,8.50
2019-05-06T03:19:34.573Z,8.40
2019-05-06T03:22:14.325Z,8.40
2019-05-06T03:24:48.885Z,8.40
2019-05-06T03:27:17.834Z,8.40
2019-05-06T03:29:46.654Z,8.20
2019-05-06T03:32:22.119Z,8.20
2019-05-06T03:35:16.296Z,8.30
2019-05-06T03:37:17.381Z,8.30
2019-05-06T03:39:46.527Z,8.30
2019-05-06T03:42:16.721Z,8.40
2019-05-06T03:44:47.555Z,8.50
2019-05-06T03:47:29.952Z,8.40
2019-05-06T03:49:58.843Z,8.40
2019-05-06T03:52:29.755Z,8.50
2019-05-06T03:54:59.712Z,8.60
2019-05-06T03:57:29.280Z,8.60
2019-05-06T04:00:00.022Z,8.60
2019-05-06T04:02:29.315Z,8.70
2019-05-06T04:04:58.125Z,8.60
2019-05-06T04:07:28.121Z,8.50
2019-05-06T04:09:56.904Z,8.30
2019-05-06T04:12:27.136Z,8.30
2019-05-06T04:14:56.679Z,8.40
2019-05-06T04:17:29.124Z,8.30
2019-05-06T04:19:59.509Z,8.30
2019-05-06T04:22:35.972Z,8.20
2019-05-06T04:25:13.779Z,8.20
2019-05-06T04:27:43.353Z,8.20
2019-05-06T04:30:13.542Z,8.30
2019-05-06T04:32:43.477Z,8.20
2019-05-06T04:35:13.551Z,8.30
2019-05-06T04:37:43.114Z,8.40
2019-05-06T04:40:13.046Z,8.40
2019-05-06T04:42:44.450Z,8.40
2019-05-06T04:45:17.193Z,8.40
2019-05-06T04:47:43.673Z,8.50
2019-05-06T04:50:13.349Z,8.60
2019-05-06T04:52:43.219Z,8.50
2019-05-06T04:55:13.970Z,8.30
2019-05-06T04:57:44.094Z,8.20
2019-05-06T05:00:13.536Z,8.20
2019-05-06T05:02:45.879Z,8.20
2019-05-06T05:05:13.878Z,8.20
2019-05-06T05:07:43.214Z,8.10
2019-05-06T05:10:19.916Z,8.10
2019-05-06T05:12:53.521Z,7.90
2019-05-06T05:15:41.786Z,8.00
2019-05-06T05:18:12.990Z,8.20
2019-05-06T05:20:46.524Z,8.20
2019-05-06T05:23:12.595Z,8.30
2019-05-06T05:25:42.537Z,8.20
2019-05-06T05:28:13.129Z,8.30
2019-05-06T05:30:42.961Z,8.20
2019-05-06T05:33:12.507Z,8.10
2019-05-06T05:35:43.287Z,8.20
2019-05-06T05:38:13.027Z,8.10
2019-05-06T05:40:43.040Z,8.10
2019-05-06T05:43:32.513Z,8.20
2019-05-06T05:46:02.767Z,8.30
2019-05-06T05:48:38.113Z,8.30
2019-05-06T05:51:06.946Z,8.50
2019-05-06T05:53:35.830Z,8.60
2019-05-06T05:56:05.008Z,8.60
2019-05-06T05:58:34.336Z,8.60
2019-05-06T06:01:05.017Z,8.60
2019-05-06T06:03:33.778Z,8.70
2019-05-06T06:06:03.037Z,8.50
2019-05-06T06:08:32.314Z,8.50
2019-05-06T06:11:04.280Z,8.40
2019-05-06T06:13:33.238Z,8.30
2019-05-06T06:16:23.245Z,8.40
2019-05-06T06:18:56.819Z,8.50
2019-05-06T06:21:28.186Z,8.80
2019-05-06T06:23:58.509Z,8.80
2019-05-06T06:26:27.338Z,8.70
2019-05-06T06:28:56.189Z,8.70
2019-05-06T06:31:26.642Z,8.80
2019-05-06T06:33:57.082Z,8.70
2019-05-06T06:36:32.501Z,8.90
2019-05-06T06:39:08.372Z,9.00
2019-05-06T06:41:38.580Z,9.10
2019-05-06T06:44:17.914Z,9.00
2019-05-06T06:46:46.880Z,8.90
2019-05-06T06:49:15.759Z,9.10
2019-05-06T06:51:44.753Z,9.30
2019-05-06T06:54:13.748Z,9.10
2019-05-06T06:56:47.400Z,9.10
2019-05-06T06:59:31.872Z,9.20
2019-05-06T07:02:08.405Z,9.30
2019-05-06T07:04:43.100Z,9.30
2019-05-06T07:07:13.187Z,9.30
2019-05-06T07:09:42.053Z,9.20
2019-05-06T07:12:13.191Z,9.10
2019-05-06T07:14:42.803Z,9.40
2019-05-06T07:17:13.328Z,9.40
2019-05-06T07:19:46.616Z,9.40
2019-05-06T07:22:17.221Z,9.30
2019-05-06T07:24:46.060Z,9.40
2019-05-06T07:27:19.316Z,9.70
2019-05-06T07:29:48.783Z,9.80
2019-05-06T07:32:17.685Z,9.70
2019-05-06T07:34:46.586Z,9.70
2019-05-06T07:37:15.516Z,9.80
2019-05-06T07:39:44.402Z,9.70
2019-05-06T07:42:17.474Z,9.90
2019-05-06T07:44:48.021Z,9.70
2019-05-06T07:47:18.530Z,9.70
2019-05-06T07:49:47.355Z,9.80
2019-05-06T07:52:17.314Z,10.00
2019-05-06T07:54:46.710Z,10.10
2019-05-06T07:57:15.743Z,10.40
2019-05-06T07:59:44.535Z,10.40
2019-05-06T08:02:13.357Z,10.60
2019-05-06T08:04:42.257Z,10.60
2019-05-06T08:07:12.588Z,10.50
2019-05-06T08:09:42.283Z,10.60
2019-05-06T08:12:12.374Z,10.70
2019-05-06T08:14:42.956Z,10.80
2019-05-06T08:17:14.985Z,10.90
2019-05-06T08:19:43.850Z,11.10
2019-05-06T08:22:17.272Z,11.50
2019-05-06T08:24:45.338Z,11.80
2019-05-06T08:27:14.238Z,12.10
2019-05-06T08:29:43.128Z,12.30
2019-05-06T08:32:12.336Z,12.50
2019-05-06T08:34:44.286Z,12.60
2019-05-06T08:37:14.789Z,12.60
2019-05-06T08:39:45.981Z,12.30
2019-05-06T08:42:14.481Z,12.00
2019-05-06T08:44:43.562Z,12.00
2019-05-06T08:47:13.268Z,11.60
2019-05-06T08:50:02.422Z,11.40
2019-05-06T08:52:32.871Z,11.30
2019-05-06T08:55:02.913Z,11.40
2019-05-06T08:57:33.993Z,11.60
2019-05-06T09:00:03.414Z,11.80
2019-05-06T09:02:32.615Z,11.80
2019-05-06T09:05:02.899Z,11.90
2019-05-06T09:07:32.167Z,12.00
2019-05-06T09:10:02.603Z,12.20
2019-05-06T09:12:32.937Z,12.40
2019-05-06T09:15:03.486Z,12.40
2019-05-06T09:17:33.004Z,12.30
2019-05-06T09:20:02.648Z,12.30
2019-05-06T09:22:32.620Z,12.50
2019-05-06T09:25:02.507Z,12.70
2019-05-06T09:27:48.326Z,13.40
2019-05-06T09:30:22.789Z,14.20
2019-05-06T09:32:52.128Z,14.90
2019-05-06T09:35:22.175Z,15.10
2019-05-06T09:37:53.417Z,14.80
2019-05-06T09:40:22.736Z,15.00
2019-05-06T09:42:52.190Z,14.80
2019-05-06T09:45:22.777Z,14.50
2019-05-06T09:48:05.462Z,14.40
2019-05-06T09:50:38.028Z,14.30
2019-05-06T09:53:08.481Z,14.00
2019-05-06T09:55:43.034Z,14.00
2019-05-06T09:58:12.369Z,13.90
2019-05-06T10:00:43.116Z,13.80
2019-05-06T10:03:12.070Z,13.60
2019-05-06T10:05:42.490Z,13.70
2019-05-06T10:08:12.413Z,13.60
2019-05-06T10:10:55.350Z,13.70
2019-05-06T10:13:12.839Z,13.80
2019-05-06T10:15:42.916Z,13.80
2019-05-06T10:18:13.133Z,14.00
2019-05-06T10:20:44.555Z,14.20
2019-05-06T10:23:14.034Z,14.40
2019-05-06T10:25:43.821Z,14.50
2019-05-06T10:28:33.225Z,14.60
2019-05-06T10:31:02.128Z,14.70
2019-05-06T10:33:32.644Z,14.90
2019-05-06T10:36:04.883Z,15.20
2019-05-06T10:38:48.410Z,15.60
2019-05-06T10:41:32.820Z,15.70
2019-05-06T10:44:26.039Z,15.90
2019-05-06T10:46:54.897Z,15.80
2019-05-06T10:49:23.727Z,15.80
2019-05-06T10:51:56.986Z,15.20
2019-05-06T10:54:25.049Z,15.20
2019-05-06T10:57:12.539Z,14.90
2019-05-06T10:59:42.929Z,15.60
2019-05-06T11:02:16.400Z,16.80
2019-05-06T11:04:45.304Z,17.60
2019-05-06T11:07:28.264Z,19.40
2019-05-06T11:09:44.656Z,21.40
2019-05-06T11:12:13.510Z,23.00
2019-05-06T11:14:42.315Z,24.60
2019-05-06T11:17:12.561Z,25.70
2019-05-06T11:19:42.776Z,26.60
2019-05-06T11:22:12.847Z,26.80
2019-05-06T11:24:42.147Z,27.40
2019-05-06T11:27:25.265Z,27.60
2019-05-06T11:29:46.271Z,26.60
2019-05-06T11:32:25.350Z,25.80
2019-05-06T11:35:12.337Z,23.70
2019-05-06T11:37:50.505Z,22.30
2019-05-06T11:40:16.968Z,21.80
2019-05-06T11:42:46.202Z,21.50
2019-05-06T11:45:15.452Z,20.90
2019-05-06T11:47:44.305Z,20.30
2019-05-06T11:50:13.710Z,19.50
2019-05-06T11:52:43.287Z,18.70
2019-05-06T11:55:21.225Z,18.10
2019-05-06T11:57:44.802Z,17.60
2019-05-06T12:00:16.119Z,17.60
2019-05-06T12:02:48.411Z,17.50
2019-05-06T12:05:15.481Z,17.20
2019-05-06T12:08:01.086Z,16.50
2019-05-06T12:10:16.251Z,16.40
2019-05-06T12:12:45.100Z,16.20
2019-05-06T12:15:13.938Z,16.20
2019-05-06T12:17:42.859Z,16.20
2019-05-06T12:20:13.123Z,16.40
2019-05-06T12:22:42.474Z,16.30
2019-05-06T12:25:15.219Z,16.20
2019-05-06T12:27:45.427Z,15.80
2019-05-06T12:30:20.195Z,15.60
2019-05-06T12:32:52.687Z,15.20
2019-05-06T12:35:21.198Z,14.90
2019-05-06T12:37:53.091Z,14.30
2019-05-06T12:40:22.158Z,14.10
2019-05-06T12:42:53.462Z,13.80
2019-05-06T12:45:27.313Z,13.40
2019-05-06T12:47:57.782Z,13.20
2019-05-06T12:50:26.707Z,13.10
2019-05-06T12:52:57.700Z,13.10
2019-05-06T12:55:26.380Z,13.10
2019-05-06T12:57:55.554Z,13.10
2019-05-06T13:00:25.321Z,13.10
2019-05-06T13:02:54.171Z,13.20
2019-05-06T13:05:23.442Z,13.30
2019-05-06T13:07:52.805Z,13.20
2019-05-06T13:10:23.217Z,13.20
2019-05-06T13:12:54.439Z,13.00
2019-05-06T13:15:24.329Z,12.70
2019-05-06T13:17:53.726Z,12.50
2019-05-06T13:20:23.009Z,12.40
2019-05-06T13:22:59.752Z,12.60
2019-05-06T13:25:28.757Z,12.40
2019-05-06T13:27:57.523Z,12.20
2019-05-06T13:30:26.441Z,12.30
2019-05-06T13:32:57.105Z,12.20
2019-05-06T13:35:26.127Z,12.00
2019-05-06T13:37:54.971Z,11.90
2019-05-06T13:40:26.885Z,12.10
2019-05-06T13:43:07.878Z,12.20
2019-05-06T13:45:36.784Z,12.30
2019-05-06T13:48:07.272Z,12.40
2019-05-06T13:50:41.891Z,12.30
2019-05-06T13:53:13.995Z,12.30
2019-05-06T13:55:42.846Z,12.30
2019-05-06T13:58:12.572Z,12.40
2019-05-06T14:00:42.603Z,12.40
2019-05-06T14:03:11.629Z,12.30
2019-05-06T14:05:42.372Z,12.20
2019-05-06T14:08:12.973Z,12.10
2019-05-06T14:10:42.381Z,12.10
2019-05-06T14:13:12.864Z,12.10
2019-05-06T14:15:42.184Z,12.00
2019-05-06T14:18:13.446Z,12.00
2019-05-06T14:20:42.889Z,12.10
2019-05-06T14:23:13.053Z,12.10
2019-05-06T14:26:04.162Z,12.00
2019-05-06T14:28:36.360Z,12.00
2019-05-06T14:31:09.999Z,12.10
2019-05-06T14:33:38.813Z,12.00
2019-05-06T14:36:07.636Z,12.00
2019-05-06T14:38:36.487Z,12.20
2019-05-06T14:41:08.620Z,12.20
2019-05-06T14:43:38.210Z,12.20
2019-05-06T14:46:08.151Z,12.30
2019-05-06T14:48:37.031Z,12.50
2019-05-06T14:51:05.840Z,12.50
2019-05-06T14:53:34.610Z,12.50
2019-05-06T14:56:05.463Z,12.40
2019-05-06T14:58:34.240Z,12.60
2019-05-06T15:01:03.675Z,12.60
2019-05-06T15:03:34.922Z,12.70
2019-05-06T15:06:16.062Z,12.90
2019-05-06T15:08:44.349Z,13.00
2019-05-06T15:11:13.181Z,13.30
2019-05-06T15:13:42.707Z,13.50
2019-05-06T15:16:13.226Z,13.80
2019-05-06T15:18:42.435Z,13.90
2019-05-06T15:21:30.209Z,14.00
2019-05-06T15:23:42.448Z,14.20
2019-05-06T15:26:12.302Z,14.20
2019-05-06T15:28:44.067Z,14.20
2019-05-06T15:31:31.125Z,14.20
2019-05-06T15:34:13.534Z,14.00
2019-05-06T15:37:02.506Z,13.90
2019-05-06T15:39:32.350Z,13.70
2019-05-06T15:42:01.544Z,13.50
2019-05-06T15:44:32.693Z,13.50
2019-05-06T15:47:03.190Z,13.40
2019-05-06T15:49:32.371Z,13.50
2019-05-06T15:52:03.674Z,13.40
2019-05-06T15:54:32.269Z,13.40
2019-05-06T15:57:01.301Z,13.30
2019-05-06T15:59:33.082Z,13.10
2019-05-06T16:02:03.039Z,13.10
2019-05-06T16:04:33.030Z,13.20
2019-05-06T16:07:02.851Z,13.30
2019-05-06T16:09:32.906Z,13.30
2019-05-06T16:12:02.990Z,13.30
2019-05-06T16:14:35.004Z,13.40
2019-05-06T16:17:04.829Z,13.30
2019-05-06T16:19:33.934Z,13.20
2019-05-06T16:22:04.072Z,13.10
2019-05-06T16:24:35.297Z,12.90
2019-05-06T16:27:04.383Z,12.60
2019-05-06T16:29:36.017Z,12.50
2019-05-06T16:32:06.314Z,12.60
2019-05-06T16:34:35.210Z,12.60
2019-05-06T16:37:03.964Z,12.70
2019-05-06T16:39:33.237Z,13.00
2019-05-06T16:42:03.635Z,13.10
2019-05-06T16:44:32.784Z,13.40
2019-05-06T16:47:02.869Z,13.30
2019-05-06T16:49:33.190Z,13.40
2019-05-06T16:52:02.755Z,13.70
2019-05-06T16:54:34.502Z,14.10
2019-05-06T16:57:10.941Z,14.20
2019-05-06T16:59:42.310Z,14.10
2019-05-06T17:02:13.911Z,14.00
2019-05-06T17:04:47.060Z,14.00
2019-05-06T17:07:15.195Z,14.00
2019-05-06T17:09:44.105Z,14.00
2019-05-06T17:12:13.015Z,14.00
2019-05-06T17:14:42.801Z,13.90
2019-05-06T17:17:11.864Z,13.90
2019-05-06T17:19:42.253Z,13.60
2019-05-06T17:22:13.523Z,13.60
2019-05-06T17:24:42.272Z,13.70
2019-05-06T17:27:12.095Z,13.70
2019-05-06T17:29:42.947Z,13.80
2019-05-06T17:32:16.367Z,13.60
2019-05-06T17:34:46.814Z,13.60
2019-05-06T17:37:36.874Z,13.60
2019-05-06T17:40:10.590Z,13.60
2019-05-06T17:42:37.492Z,13.60
2019-05-06T17:45:26.645Z,13.40
2019-05-06T17:47:57.147Z,13.30
2019-05-06T17:50:28.489Z,13.30
2019-05-06T17:52:57.382Z,13.20
2019-05-06T17:55:26.208Z,13.20
2019-05-06T17:57:55.023Z,13.10
2019-05-06T18:00:32.202Z,13.00
2019-05-06T18:03:02.349Z,13.00
2019-05-06T18:05:32.439Z,13.00
2019-05-06T18:08:02.932Z,12.90
2019-05-06T18:10:33.486Z,12.80
2019-05-06T18:13:03.059Z,12.90
2019-05-06T18:15:32.660Z,12.90
2019-05-06T18:18:02.187Z,12.90
2019-05-06T18:20:33.523Z,12.90
2019-05-06T18:23:02.167Z,13.00
2019-05-06T18:25:32.846Z,12.90
2019-05-06T18:28:01.785Z,13.00
2019-05-06T18:30:34.314Z,13.00
2019-05-06T18:33:02.285Z,13.00
2019-05-06T18:35:33.048Z,12.90
2019-05-06T18:38:02.989Z,12.90
2019-05-06T18:40:33.152Z,12.90
2019-05-06T18:43:02.368Z,12.70
2019-05-06T18:45:33.266Z,12.50
2019-05-06T18:48:02.814Z,12.60
2019-05-06T18:50:32.138Z,12.60
2019-05-06T18:53:02.456Z,12.50
2019-05-06T18:55:33.071Z,12.60
2019-05-06T18:58:02.361Z,12.60
2019-05-06T19:00:32.032Z,12.70
2019-05-06T19:03:02.690Z,12.60
2019-05-06T19:05:42.935Z,12.60
2019-05-06T19:08:35.773Z,12.40
2019-05-06T19:11:12.867Z,12.30
2019-05-06T19:13:52.695Z,12.40
2019-05-06T19:16:22.306Z,12.40
2019-05-06T19:18:52.187Z,12.50
2019-05-06T19:21:24.328Z,12.40
2019-05-06T19:23:54.604Z,12.30
2019-05-06T19:26:22.440Z,12.20
2019-05-06T19:28:52.657Z,12.20
2019-05-06T19:31:22.919Z,12.20
2019-05-06T19:33:52.730Z,12.30
2019-05-06T19:36:23.550Z,12.20
2019-05-06T19:38:52.975Z,12.10
2019-05-06T19:41:22.332Z,12.00
2019-05-06T19:43:53.303Z,12.00
2019-05-06T19:46:25.706Z,12.00
2019-05-06T19:48:54.689Z,12.00
2019-05-06T19:51:23.641Z,12.20
2019-05-06T19:53:52.437Z,12.30
2019-05-06T19:56:23.856Z,12.30
2019-05-06T19:58:57.886Z,12.30
2019-05-06T20:01:26.974Z,12.30
2019-05-06T20:04:16.599Z,12.20
2019-05-06T20:06:45.787Z,12.10
2019-05-06T20:09:43.782Z,12.10
2019-05-06T20:12:12.338Z,12.20
2019-05-06T20:14:41.882Z,12.20
2019-05-06T20:17:22.174Z,12.20
2019-05-06T20:19:49.208Z,12.20
2019-05-06T20:22:23.060Z,12.10
2019-05-06T20:25:21.938Z,12.00
2019-05-06T20:27:47.386Z,12.10
2019-05-06T20:30:23.685Z,12.10
2019-05-06T20:32:55.319Z,12.20
2019-05-06T20:35:25.786Z,12.10
2019-05-06T20:37:54.673Z,12.10
2019-05-06T20:40:23.530Z,12.00
2019-05-06T20:42:52.438Z,12.10
2019-05-06T20:45:22.364Z,12.00
2019-05-06T20:47:53.062Z,12.00
2019-05-06T20:50:22.587Z,12.00
2019-05-06T20:52:52.124Z,11.90
2019-05-06T20:55:24.075Z,12.00
2019-05-06T20:57:53.092Z,11.90
2019-05-06T21:00:29.810Z,12.00
2019-05-06T21:02:58.888Z,11.90
2019-05-06T21:05:27.840Z,11.90
2019-05-06T21:07:56.698Z,12.00
2019-05-06T21:10:25.553Z,12.00
2019-05-06T21:12:54.385Z,11.90
2019-05-06T21:15:23.175Z,12.10
2019-05-06T21:17:52.005Z,12.20
2019-05-06T21:20:20.915Z,12.00
2019-05-06T21:22:52.782Z,11.90
2019-05-06T21:25:22.599Z,11.90
2019-05-06T21:27:53.225Z,11.80
2019-05-06T21:30:24.423Z,11.70
2019-05-06T21:32:54.778Z,11.60
2019-05-06T21:35:33.179Z,11.70
2019-05-06T21:38:02.564Z,11.60
2019-05-06T21:40:32.347Z,11.60
2019-05-06T21:43:02.848Z,11.50
2019-05-06T21:45:37.821Z,11.60
2019-05-06T21:48:05.185Z,11.50
2019-05-06T21:50:34.293Z,11.60
2019-05-06T21:53:03.478Z,11.60
2019-05-06T21:55:32.493Z,11.50
2019-05-06T21:58:02.137Z,11.60
2019-05-06T22:00:43.351Z,11.70
2019-05-06T22:03:13.410Z,11.70
2019-05-06T22:05:42.618Z,11.60
2019-05-06T22:08:12.902Z,11.60
2019-05-06T22:10:42.305Z,11.50
2019-05-06T22:13:14.241Z,11.50
2019-05-06T22:15:42.211Z,11.60
2019-05-06T22:18:12.475Z,11.50
2019-05-06T22:20:59.601Z,11.50
2019-05-06T22:23:30.007Z,11.40
2019-05-06T22:26:11.129Z,11.40
2019-05-06T22:28:29.341Z,11.40
2019-05-06T22:30:59.829Z,11.50
2019-05-06T22:33:28.607Z,11.40
2019-05-06T22:35:57.425Z,11.50
2019-05-06T22:38:26.240Z,11.50
2019-05-06T22:40:58.029Z,11.60
2019-05-06T22:43:26.920Z,11.50
2019-05-06T22:45:58.689Z,11.50
2019-05-06T22:48:27.685Z,11.60
2019-05-06T22:50:56.527Z,11.50
2019-05-06T22:53:25.423Z,11.50
2019-05-06T22:55:55.890Z,11.40
2019-05-06T22:58:24.690Z,11.40
2019-05-06T23:00:55.004Z,11.30
2019-05-06T23:03:34.588Z,11.40
2019-05-06T23:06:03.597Z,11.40
2019-05-06T23:08:32.604Z,11.40
2019-05-06T23:11:01.466Z,11.40
2019-05-06T23:13:34.249Z,11.50
2019-05-06T23:16:03.094Z,11.50
2019-05-06T23:18:32.094Z,11.40
2019-05-06T23:21:02.503Z,11.50
2019-05-06T23:23:40.339Z,11.50
2019-05-06T23:26:22.780Z,11.40
2019-05-06T23:28:53.839Z,11.30
2019-05-06T23:31:24.595Z,11.30
2019-05-06T23:33:53.444Z,11.30
2019-05-06T23:36:22.965Z,11.30
2019-05-06T23:39:28.085Z,11.30
2019-05-06T23:42:33.431Z,11.30
2019-05-06T23:45:38.730Z,11.40
2019-05-06T23:48:44.278Z,11.20
2019-05-06T23:51:49.870Z,11.10
2019-05-06T23:54:55.224Z,11.00
2019-05-06T23:57:24.885Z,10.90
2019-05-06T23:59:54.571Z,10.80
